الصفحة الرئيسية
METAR-TAF:

METAR-TAF

مطار :

مطار لوس أنجلوس الدولي

لوس أنجلوس, كاليفورنيا, الولايات المتحدة

دائرة عرض: 33-56-17N, خط طول: 118-23-20W, ارتفاع: 38 متر

مراقبة الطقس الحالي

تاريخ ووقت الإصدار 1ساعة و 5 دقيقة قبل الساعة 09:53UTC
رياح هادئة
درجة الحرارة 14°درجة مئوية
الرطوبة 72%
ضغط 1022 hPa
الرؤية: 16.1 كم
غيوم قليلة على ارتفاع 1500 قدم
غيوم قليلة على ارتفاع 18000 قدم
ملبد بالغيوم على ارتفاع 22000 قدم

METAR: KLAX 120953Z 00000KT 10SM FEW015 FEW180 OVC220 14/09 A3019 RMK AO2 SLP221 T01440094 $

زمن: 02:58 (10:58 UTC)

توقعات

تاريخ ووقت الإصدار 1ساعة و 48 دقيقة قبل الساعة 09:10UTC
التوقعات صالحة من12 الساعة 09 UTC إلى 13 الساعة 12 UTC
ريح 3 عقدةمن اتجاهات متغيرة
الرؤية: 10 كم
غيوم مفككة على ارتفاع 20000 قدم
من 12 الساعة 2000 UTC
ريح 10 عقدة من الغرب
الرؤية: 10 كم
غيوم مفككة على ارتفاع 20000 قدم
من 13 الساعة 0400 UTC
ريح 3 عقدةمن اتجاهات متغيرة
الرؤية: 10 كم
غيوم مفككة على ارتفاع 20000 قدم

TAF: KLAX 120910Z 1209/1312 VRB03KT P6SM BKN200 FM122000 26010KT P6SM BKN200 FM130400 VRB03KT P6SM BKN200

أرصاد الطقس والتوقعات من أكثر من 4000 مطار (تقارير الطقس للمطار METAR والتنبؤ بالطقس بالمطارTAF).

المحطات المتاحة هي النقط الصفراء والحمراء على الخريطة.

حرك المؤشر فوق النقطة لمعرفة اسم المحطة.

ثم انقر لمعرفة أرصاد وتوقعات الطقس.

لتغيير الخارطة: اضغط على الأزرار الخضراء مع رمز الصليب الأسود للتكبير. على الزر الأخضر مع شرطة للتصغير، أو على الأسهم الخضراء للخرائط المجاورة.


METAR-TAF: